createdAt,value
2017-12-20T00:00:54.905Z,1016.92
2017-12-20T00:01:55.465Z,1016.97
2017-12-20T00:02:57.833Z,1016.97
2017-12-20T00:03:59.785Z,1016.96
2017-12-20T00:05:01.594Z,1017.01
2017-12-20T00:06:03.012Z,1017.02
2017-12-20T00:07:04.424Z,1016.95
2017-12-20T00:08:05.828Z,1016.93
2017-12-20T00:09:07.243Z,1016.91
2017-12-20T00:10:08.645Z,1016.90
2017-12-20T00:11:10.070Z,1016.91
2017-12-20T00:12:11.474Z,1016.96
2017-12-20T00:13:12.901Z,1016.96
2017-12-20T00:14:14.319Z,1016.93
2017-12-20T00:15:15.738Z,1016.95
2017-12-20T00:16:17.154Z,1016.94
2017-12-20T00:17:18.576Z,1016.92
2017-12-20T00:18:19.986Z,1016.90
2017-12-20T00:19:21.401Z,1016.92
2017-12-20T00:20:22.834Z,1016.94
2017-12-20T00:21:24.241Z,1016.88
2017-12-20T00:22:25.655Z,1016.91
2017-12-20T00:23:27.069Z,1016.91
2017-12-20T00:24:28.483Z,1016.91
2017-12-20T00:25:29.903Z,1016.90
2017-12-20T00:26:31.357Z,1016.83
2017-12-20T00:27:32.749Z,1016.89
2017-12-20T00:28:34.157Z,1016.85
2017-12-20T00:29:35.571Z,1016.85
2017-12-20T00:30:37.003Z,1016.85
2017-12-20T00:31:38.410Z,1016.81
2017-12-20T00:32:39.829Z,1016.87
2017-12-20T00:33:41.237Z,1016.84
2017-12-20T00:34:42.647Z,1016.88
2017-12-20T00:35:44.079Z,1016.88
2017-12-20T00:36:45.550Z,1016.90
2017-12-20T00:37:46.972Z,1016.90
2017-12-20T00:38:48.378Z,1016.91
2017-12-20T00:39:49.795Z,1016.90
2017-12-20T00:40:51.222Z,1016.88
2017-12-20T00:41:52.646Z,1016.85
2017-12-20T00:42:54.063Z,1016.84
2017-12-20T00:43:55.475Z,1016.81
2017-12-20T00:44:56.884Z,1016.75
2017-12-20T00:45:58.308Z,1016.72
2017-12-20T00:46:59.727Z,1016.78
2017-12-20T00:48:01.143Z,1016.72
2017-12-20T00:49:02.556Z,1016.68
2017-12-20T00:50:03.974Z,1016.67
2017-12-20T00:51:05.380Z,1016.64
2017-12-20T00:52:06.820Z,1016.69
2017-12-20T00:53:08.229Z,1016.70
2017-12-20T00:54:09.648Z,1016.67
2017-12-20T00:55:11.065Z,1016.72
2017-12-20T00:56:12.470Z,1016.71
2017-12-20T00:57:13.894Z,1016.66
2017-12-20T00:58:15.298Z,1016.68
2017-12-20T00:59:16.711Z,1016.74
2017-12-20T01:00:18.126Z,1016.66
2017-12-20T01:01:19.529Z,1016.66
2017-12-20T01:02:20.932Z,1016.59
2017-12-20T01:03:22.349Z,1016.65
2017-12-20T01:04:23.758Z,1016.63
2017-12-20T01:05:25.175Z,1016.72
2017-12-20T01:06:26.583Z,1016.77
2017-12-20T01:07:28.012Z,1016.82
2017-12-20T01:08:29.422Z,1016.80
2017-12-20T01:09:30.828Z,1016.79
2017-12-20T01:10:32.234Z,1016.87
2017-12-20T01:11:33.654Z,1016.87
2017-12-20T01:12:35.072Z,1016.83
2017-12-20T01:13:37.161Z,1016.83
2017-12-20T01:14:38.622Z,1016.83
2017-12-20T01:15:40.037Z,1016.81
2017-12-20T01:16:41.453Z,1016.85
2017-12-20T01:17:42.875Z,1016.78
2017-12-20T01:18:44.291Z,1016.77
2017-12-20T01:19:45.712Z,1016.79
2017-12-20T01:20:47.131Z,1016.84
2017-12-20T01:21:48.546Z,1016.81
2017-12-20T01:22:49.961Z,1016.86
2017-12-20T01:23:51.386Z,1016.82
2017-12-20T01:24:52.801Z,1016.85
2017-12-20T01:25:54.205Z,1016.83
2017-12-20T01:26:55.616Z,1016.90
2017-12-20T01:27:57.032Z,1016.88
2017-12-20T01:28:58.442Z,1016.90
2017-12-20T01:29:59.930Z,1016.92
2017-12-20T01:31:01.360Z,1016.93
2017-12-20T01:32:02.771Z,1016.95
2017-12-20T01:33:04.181Z,1016.96
2017-12-20T01:34:05.601Z,1016.99
2017-12-20T01:35:07.011Z,1017.01
2017-12-20T01:36:08.423Z,1017.03
2017-12-20T01:37:09.836Z,1017.03
2017-12-20T01:38:11.245Z,1017.02
2017-12-20T01:39:12.664Z,1017.06
2017-12-20T01:40:14.071Z,1017.02
2017-12-20T01:41:15.482Z,1017.00
2017-12-20T01:42:16.890Z,1017.01
2017-12-20T01:43:18.297Z,1016.97
2017-12-20T01:44:19.715Z,1016.97
2017-12-20T01:45:21.128Z,1016.92
2017-12-20T01:46:22.530Z,1016.88
2017-12-20T01:47:23.948Z,1016.85
2017-12-20T01:48:25.354Z,1016.85
2017-12-20T01:49:26.767Z,1016.86
2017-12-20T01:50:28.193Z,1016.86
2017-12-20T01:51:29.601Z,1016.81
2017-12-20T01:52:31.008Z,1016.66
2017-12-20T01:53:32.422Z,1016.62
2017-12-20T01:54:33.828Z,1016.58
2017-12-20T01:55:35.356Z,1016.60
2017-12-20T01:56:36.760Z,1016.61
2017-12-20T01:57:38.172Z,1016.58
2017-12-20T01:58:39.578Z,1016.57
2017-12-20T01:59:40.983Z,1016.54
2017-12-20T02:00:42.397Z,1016.57
2017-12-20T02:01:43.802Z,1016.56
2017-12-20T02:02:45.218Z,1016.54
2017-12-20T02:03:46.642Z,1016.51
2017-12-20T02:04:48.047Z,1016.50
2017-12-20T02:05:49.460Z,1016.45
2017-12-20T02:06:50.876Z,1016.49
2017-12-20T02:07:52.298Z,1016.45
2017-12-20T02:08:53.712Z,1016.46
2017-12-20T02:09:55.131Z,1016.47
2017-12-20T02:10:56.548Z,1016.50
2017-12-20T02:11:57.960Z,1016.54
2017-12-20T02:12:59.376Z,1016.52
2017-12-20T02:14:00.786Z,1016.54
2017-12-20T02:15:02.266Z,1016.59
2017-12-20T02:16:03.678Z,1016.51
2017-12-20T02:17:05.085Z,1016.51
2017-12-20T02:18:06.496Z,1016.54
2017-12-20T02:19:07.913Z,1016.58
2017-12-20T02:20:09.346Z,1016.53
2017-12-20T02:21:10.952Z,1016.46
2017-12-20T02:22:12.325Z,1016.46
2017-12-20T02:23:13.745Z,1016.51
2017-12-20T02:24:15.164Z,1016.48
2017-12-20T02:25:16.579Z,1016.41
2017-12-20T02:26:17.982Z,1016.43
2017-12-20T02:27:19.405Z,1016.43
2017-12-20T02:28:20.821Z,1016.44
2017-12-20T02:29:22.236Z,1016.43
2017-12-20T02:30:23.647Z,1016.39
2017-12-20T02:31:25.056Z,1016.39
2017-12-20T02:32:26.467Z,1016.41
2017-12-20T02:33:27.876Z,1016.41
2017-12-20T02:34:29.291Z,1016.40
2017-12-20T02:35:30.694Z,1016.38
2017-12-20T02:36:32.188Z,1016.35
2017-12-20T02:37:33.609Z,1016.35
2017-12-20T02:38:35.021Z,1016.35
2017-12-20T02:39:36.425Z,1016.40
2017-12-20T02:40:37.836Z,1016.38
2017-12-20T02:41:39.250Z,1016.41
2017-12-20T02:42:40.659Z,1016.41
2017-12-20T02:43:42.072Z,1016.37
2017-12-20T02:44:43.479Z,1016.40
2017-12-20T02:45:44.890Z,1016.42
2017-12-20T02:46:46.307Z,1016.48
2017-12-20T02:47:47.734Z,1016.45
2017-12-20T02:48:49.150Z,1016.48
2017-12-20T02:49:50.555Z,1016.47
2017-12-20T02:50:51.957Z,1016.46
2017-12-20T02:51:53.381Z,1016.53
2017-12-20T02:52:54.793Z,1016.48
2017-12-20T02:53:56.212Z,1016.43
2017-12-20T02:54:57.622Z,1016.42
2017-12-20T02:55:59.035Z,1016.37
2017-12-20T02:57:00.471Z,1016.33
2017-12-20T02:58:01.868Z,1016.40
2017-12-20T02:59:03.281Z,1016.36
2017-12-20T03:00:04.683Z,1016.36
2017-12-20T03:01:06.103Z,1016.35
2017-12-20T03:02:07.503Z,1016.34
2017-12-20T03:03:08.917Z,1016.30
2017-12-20T03:04:10.335Z,1016.26
2017-12-20T03:05:11.751Z,1016.30
2017-12-20T03:06:13.175Z,1016.27
2017-12-20T03:07:14.603Z,1016.33
2017-12-20T03:08:16.024Z,1016.34
2017-12-20T03:09:17.440Z,1016.30
2017-12-20T03:10:18.851Z,1016.36
2017-12-20T03:11:20.262Z,1016.36
2017-12-20T03:12:21.677Z,1016.33
2017-12-20T03:13:23.204Z,1016.35
2017-12-20T03:14:24.616Z,1016.38
2017-12-20T03:15:26.029Z,1016.35
2017-12-20T03:16:27.442Z,1016.32
2017-12-20T03:17:28.854Z,1016.31
2017-12-20T03:18:30.260Z,1016.26
2017-12-20T03:19:31.673Z,1016.27
2017-12-20T03:20:33.094Z,1016.28
2017-12-20T03:21:34.509Z,1016.33
2017-12-20T03:22:35.930Z,1016.34
2017-12-20T03:23:37.345Z,1016.37
2017-12-20T03:24:38.747Z,1016.36
2017-12-20T03:25:40.211Z,1016.35
2017-12-20T03:26:41.620Z,1016.39
2017-12-20T03:27:43.033Z,1016.38
2017-12-20T03:28:44.449Z,1016.41
2017-12-20T03:29:45.857Z,1016.47
2017-12-20T03:30:47.274Z,1016.43
2017-12-20T03:31:48.681Z,1016.49
2017-12-20T03:32:50.105Z,1016.50
2017-12-20T03:33:53.741Z,1016.45
2017-12-20T03:34:55.155Z,1016.50
2017-12-20T03:35:56.571Z,1016.48
2017-12-20T03:36:57.976Z,1016.43
2017-12-20T03:37:59.392Z,1016.44
2017-12-20T03:39:00.802Z,1016.45
2017-12-20T03:40:02.206Z,1016.55
2017-12-20T03:41:03.612Z,1016.50
2017-12-20T03:42:05.022Z,1016.52
2017-12-20T03:43:06.440Z,1016.50
2017-12-20T03:44:07.856Z,1016.57
2017-12-20T03:45:09.275Z,1016.57
2017-12-20T03:46:10.774Z,1016.58
2017-12-20T03:47:12.187Z,1016.54
2017-12-20T03:48:13.598Z,1016.55
2017-12-20T03:49:15.021Z,1016.57
2017-12-20T03:50:16.512Z,1016.59
2017-12-20T03:51:17.864Z,1016.55
2017-12-20T03:52:19.274Z,1016.54
2017-12-20T03:53:20.689Z,1016.55
2017-12-20T03:54:22.102Z,1016.54
2017-12-20T03:55:23.510Z,1016.53
2017-12-20T03:56:24.923Z,1016.58
2017-12-20T03:57:26.346Z,1016.54
2017-12-20T03:58:27.758Z,1016.54
2017-12-20T03:59:29.170Z,1016.55
2017-12-20T04:00:30.591Z,1016.53
2017-12-20T04:01:32.015Z,1016.53
2017-12-20T04:02:33.421Z,1016.50
2017-12-20T04:03:34.848Z,1016.54
2017-12-20T04:04:36.243Z,1016.51
2017-12-20T04:05:37.658Z,1016.52
2017-12-20T04:06:39.073Z,1016.51
2017-12-20T04:07:40.553Z,1016.54
2017-12-20T04:08:41.922Z,1016.45
2017-12-20T04:09:43.331Z,1016.49
2017-12-20T04:10:44.751Z,1016.51
2017-12-20T04:11:46.168Z,1016.53
2017-12-20T04:12:47.584Z,1016.56
2017-12-20T04:13:48.984Z,1016.55
2017-12-20T04:14:50.448Z,1016.45
2017-12-20T04:15:51.871Z,1016.42
2017-12-20T04:16:53.284Z,1016.37
2017-12-20T04:17:57.216Z,1016.33
2017-12-20T04:18:58.639Z,1016.39
2017-12-20T04:20:00.057Z,1016.38
2017-12-20T04:21:01.467Z,1016.35
2017-12-20T04:22:02.892Z,1016.32
2017-12-20T04:23:04.345Z,1016.39
2017-12-20T04:24:05.759Z,1016.43
2017-12-20T04:25:07.173Z,1016.51
2017-12-20T04:26:08.583Z,1016.40
2017-12-20T04:27:09.992Z,1016.47
2017-12-20T04:28:11.408Z,1016.46
2017-12-20T04:29:12.812Z,1016.48
2017-12-20T04:30:14.225Z,1016.45
2017-12-20T04:31:15.632Z,1016.47
2017-12-20T04:32:17.053Z,1016.47
2017-12-20T04:33:18.451Z,1016.47
2017-12-20T04:34:19.858Z,1016.46
2017-12-20T04:35:21.271Z,1016.51
2017-12-20T04:36:22.694Z,1016.51
2017-12-20T04:37:24.108Z,1016.50
2017-12-20T04:38:25.509Z,1016.48
2017-12-20T04:39:26.919Z,1016.54
2017-12-20T04:40:28.329Z,1016.54
2017-12-20T04:41:29.750Z,1016.54
2017-12-20T04:42:31.169Z,1016.56
2017-12-20T04:43:32.582Z,1016.59
2017-12-20T04:44:33.986Z,1016.59
2017-12-20T04:45:35.403Z,1016.55
2017-12-20T04:46:36.808Z,1016.60
2017-12-20T04:47:38.230Z,1016.63
2017-12-20T04:48:39.645Z,1016.63
2017-12-20T04:49:41.064Z,1016.66
2017-12-20T04:50:42.476Z,1016.66
2017-12-20T04:51:43.891Z,1016.64
2017-12-20T04:52:45.298Z,1016.59
2017-12-20T04:53:46.819Z,1016.55
2017-12-20T04:54:48.232Z,1016.55
2017-12-20T04:55:49.647Z,1016.53
2017-12-20T04:56:51.057Z,1016.57
2017-12-20T04:57:52.471Z,1016.55
2017-12-20T04:58:53.886Z,1016.55
2017-12-20T04:59:55.292Z,1016.58
2017-12-20T05:00:56.758Z,1016.60
2017-12-20T05:01:58.164Z,1016.62
2017-12-20T05:02:59.573Z,1016.58
2017-12-20T05:04:01.002Z,1016.63
2017-12-20T05:05:02.411Z,1016.61
2017-12-20T05:06:03.827Z,1016.63
2017-12-20T05:07:05.235Z,1016.65
2017-12-20T05:08:06.652Z,1016.68
2017-12-20T05:09:08.049Z,1016.69
2017-12-20T05:10:09.459Z,1016.69
2017-12-20T05:11:10.872Z,1016.73
2017-12-20T05:12:12.297Z,1016.70
2017-12-20T05:13:13.710Z,1016.70
2017-12-20T05:14:15.177Z,1016.76
2017-12-20T05:15:16.588Z,1016.68
2017-12-20T05:16:17.994Z,1016.71
2017-12-20T05:17:19.405Z,1016.70
2017-12-20T05:18:20.828Z,1016.72
2017-12-20T05:19:22.966Z,1016.74
2017-12-20T05:20:24.383Z,1016.72
2017-12-20T05:21:25.789Z,1016.75
2017-12-20T05:22:27.199Z,1016.73
2017-12-20T05:23:28.614Z,1016.77
2017-12-20T05:24:30.017Z,1016.75
2017-12-20T05:25:31.441Z,1016.69
2017-12-20T05:26:32.852Z,1016.70
2017-12-20T05:27:34.264Z,1016.70
2017-12-20T05:28:35.678Z,1016.71
2017-12-20T05:29:37.084Z,1016.75
2017-12-20T05:30:38.496Z,1016.74
2017-12-20T05:31:39.903Z,1016.72
2017-12-20T05:32:41.304Z,1016.69
2017-12-20T05:33:42.713Z,1016.69
2017-12-20T05:34:44.131Z,1016.70
2017-12-20T05:35:45.540Z,1016.78
2017-12-20T05:36:47.017Z,1016.75
2017-12-20T05:37:48.471Z,1016.73
2017-12-20T05:38:49.885Z,1016.75
2017-12-20T05:39:51.287Z,1016.75
2017-12-20T05:40:52.694Z,1016.71
2017-12-20T05:41:54.107Z,1016.79
2017-12-20T05:42:55.520Z,1016.71
2017-12-20T05:43:56.936Z,1016.75
2017-12-20T05:44:58.349Z,1016.73
2017-12-20T05:45:59.754Z,1016.72
2017-12-20T05:47:01.170Z,1016.68
2017-12-20T05:48:02.587Z,1016.68
2017-12-20T05:49:04.000Z,1016.66
2017-12-20T05:50:05.414Z,1016.71
2017-12-20T05:51:06.831Z,1016.68
2017-12-20T05:52:08.244Z,1016.68
2017-12-20T05:53:09.655Z,1016.64
2017-12-20T05:54:11.077Z,1016.63
2017-12-20T05:55:12.486Z,1016.62
2017-12-20T05:56:13.903Z,1016.63
2017-12-20T05:57:15.318Z,1016.56
2017-12-20T05:58:16.725Z,1016.61
2017-12-20T05:59:18.135Z,1016.60
2017-12-20T06:00:19.549Z,1016.64
2017-12-20T06:01:20.958Z,1016.62
2017-12-20T06:02:22.379Z,1016.52
2017-12-20T06:03:23.781Z,1016.57
2017-12-20T06:04:25.197Z,1016.52
2017-12-20T06:05:26.612Z,1016.49
2017-12-20T06:06:28.029Z,1016.56
2017-12-20T06:07:29.437Z,1016.52
2017-12-20T06:08:30.874Z,1016.53
2017-12-20T06:09:32.293Z,1016.48
2017-12-20T06:10:33.706Z,1016.47
2017-12-20T06:11:35.134Z,1016.42
2017-12-20T06:12:36.549Z,1016.46
2017-12-20T06:13:37.956Z,1016.46
2017-12-20T06:14:39.366Z,1016.45
2017-12-20T06:15:40.769Z,1016.45
2017-12-20T06:16:42.194Z,1016.43
2017-12-20T06:17:43.604Z,1016.47
2017-12-20T06:18:45.020Z,1016.41
2017-12-20T06:19:46.430Z,1016.43
2017-12-20T06:20:47.834Z,1016.40
2017-12-20T06:21:49.253Z,1016.42
2017-12-20T06:22:50.673Z,1016.50
2017-12-20T06:23:52.083Z,1016.52
2017-12-20T06:24:53.490Z,1016.57
2017-12-20T06:25:54.912Z,1016.55
2017-12-20T06:26:56.347Z,1016.48
2017-12-20T06:27:57.761Z,1016.50
2017-12-20T06:28:59.168Z,1016.53
2017-12-20T06:30:00.593Z,1016.52
2017-12-20T06:31:01.989Z,1016.53
2017-12-20T06:32:03.398Z,1016.53
2017-12-20T06:33:04.811Z,1016.56
2017-12-20T06:34:06.231Z,1016.54
2017-12-20T06:35:07.653Z,1016.58
2017-12-20T06:36:09.075Z,1016.61
2017-12-20T06:37:10.475Z,1016.62
2017-12-20T06:38:11.891Z,1016.67
2017-12-20T06:39:13.298Z,1016.64
2017-12-20T06:40:14.708Z,1016.68
2017-12-20T06:41:16.124Z,1016.69
2017-12-20T06:42:17.536Z,1016.72
2017-12-20T06:43:18.950Z,1016.70
2017-12-20T06:44:20.373Z,1016.72
2017-12-20T06:45:21.785Z,1016.75
2017-12-20T06:46:23.200Z,1016.74
2017-12-20T06:47:24.614Z,1016.75
2017-12-20T06:48:26.029Z,1016.76
2017-12-20T06:49:27.438Z,1016.77
2017-12-20T06:50:28.853Z,1016.80
2017-12-20T06:51:30.267Z,1016.79
2017-12-20T06:52:31.767Z,1016.75
2017-12-20T06:53:33.176Z,1016.77
2017-12-20T06:54:34.578Z,1016.76
2017-12-20T06:55:35.993Z,1016.81
2017-12-20T06:56:37.405Z,1016.82
2017-12-20T06:57:38.828Z,1016.80
2017-12-20T06:58:40.238Z,1016.81
2017-12-20T06:59:41.651Z,1016.81
2017-12-20T07:00:43.076Z,1016.77
2017-12-20T07:01:44.481Z,1016.80
2017-12-20T07:02:45.895Z,1016.77
2017-12-20T07:03:47.305Z,1016.84
2017-12-20T07:04:48.730Z,1016.84
2017-12-20T07:05:50.157Z,1016.84
2017-12-20T07:06:51.567Z,1016.85
2017-12-20T07:07:52.983Z,1016.86
2017-12-20T07:08:54.386Z,1016.84
2017-12-20T07:09:55.798Z,1016.87
2017-12-20T07:10:57.210Z,1016.84
2017-12-20T07:11:58.704Z,1016.87
2017-12-20T07:13:00.118Z,1016.84
2017-12-20T07:14:01.530Z,1016.78
2017-12-20T07:15:02.948Z,1016.81
2017-12-20T07:16:04.365Z,1016.80
2017-12-20T07:17:05.778Z,1016.89
2017-12-20T07:18:07.182Z,1016.94
2017-12-20T07:19:08.602Z,1016.96
2017-12-20T07:20:10.018Z,1016.94
2017-12-20T07:21:11.437Z,1016.92
2017-12-20T07:22:12.839Z,1017.00
2017-12-20T07:23:14.247Z,1017.08
2017-12-20T07:24:15.665Z,1017.08
2017-12-20T07:25:17.070Z,1017.10
2017-12-20T07:26:18.490Z,1017.11
2017-12-20T07:27:19.902Z,1017.13
2017-12-20T07:28:21.321Z,1017.13
2017-12-20T07:29:22.768Z,1017.11
2017-12-20T07:30:24.172Z,1017.14
2017-12-20T07:31:25.597Z,1017.16
2017-12-20T07:32:27.012Z,1017.16
2017-12-20T07:33:28.434Z,1017.22
2017-12-20T07:34:29.906Z,1017.22
2017-12-20T07:35:31.316Z,1017.23
2017-12-20T07:36:32.731Z,1017.28
2017-12-20T07:37:34.135Z,1017.27
2017-12-20T07:38:35.561Z,1017.28
2017-12-20T07:39:36.966Z,1017.33
2017-12-20T07:40:38.398Z,1017.33
2017-12-20T07:41:39.803Z,1017.28
2017-12-20T07:42:41.222Z,1017.32
2017-12-20T07:43:42.624Z,1017.31
2017-12-20T07:44:44.043Z,1017.34
2017-12-20T07:45:45.452Z,1017.35
2017-12-20T07:46:46.866Z,1017.31
2017-12-20T07:47:48.287Z,1017.35
2017-12-20T07:48:49.701Z,1017.29
2017-12-20T07:49:51.117Z,1017.30
2017-12-20T07:50:52.537Z,1017.28
2017-12-20T07:51:53.959Z,1017.27
2017-12-20T07:52:55.367Z,1017.31
2017-12-20T07:53:56.779Z,1017.31
2017-12-20T07:54:58.201Z,1017.25
2017-12-20T07:55:59.616Z,1017.28
2017-12-20T07:57:01.043Z,1017.29
2017-12-20T07:58:02.451Z,1017.27
2017-12-20T07:59:03.872Z,1017.27
2017-12-20T08:00:05.282Z,1017.34
2017-12-20T08:01:06.699Z,1017.34
2017-12-20T08:02:08.114Z,1017.35
2017-12-20T08:03:09.537Z,1017.34
2017-12-20T08:04:10.950Z,1017.34
2017-12-20T08:05:12.354Z,1017.33
2017-12-20T08:06:13.771Z,1017.36
2017-12-20T08:07:15.187Z,1017.35
2017-12-20T08:08:16.595Z,1017.32
2017-12-20T08:09:18.011Z,1017.35
2017-12-20T08:10:19.414Z,1017.35
2017-12-20T08:11:20.846Z,1017.35
2017-12-20T08:12:22.257Z,1017.35
2017-12-20T08:13:23.661Z,1017.37
2017-12-20T08:14:25.081Z,1017.38
2017-12-20T08:15:26.497Z,1017.37
2017-12-20T08:16:27.912Z,1017.40
2017-12-20T08:17:29.319Z,1017.36
2017-12-20T08:18:30.730Z,1017.36
2017-12-20T08:19:32.134Z,1017.34
2017-12-20T08:20:33.556Z,1017.35
2017-12-20T08:21:34.976Z,1017.38
2017-12-20T08:22:36.448Z,1017.49
2017-12-20T08:23:37.803Z,1017.71
2017-12-20T08:24:39.215Z,1017.85
2017-12-20T08:25:40.628Z,1018.06
2017-12-20T08:26:42.034Z,1018.31
2017-12-20T08:27:43.453Z,1018.44
2017-12-20T08:28:44.873Z,1018.27
2017-12-20T08:29:46.291Z,1018.17
2017-12-20T08:30:47.724Z,1018.16
2017-12-20T08:31:49.152Z,1018.12
2017-12-20T08:32:50.565Z,1018.09
2017-12-20T08:33:52.024Z,1018.11
2017-12-20T08:34:53.435Z,1018.08
2017-12-20T08:35:54.843Z,1018.10
2017-12-20T08:36:56.266Z,1018.05
2017-12-20T08:37:57.681Z,1018.01
2017-12-20T08:38:59.094Z,1018.06
2017-12-20T08:40:00.562Z,1018.03
2017-12-20T08:41:01.928Z,1018.09
2017-12-20T08:42:03.342Z,1018.04
2017-12-20T08:43:04.759Z,1018.02
2017-12-20T08:44:06.169Z,1018.06
2017-12-20T08:45:07.573Z,1018.01
2017-12-20T08:46:08.987Z,1017.97
2017-12-20T08:47:10.403Z,1017.98
2017-12-20T08:48:11.820Z,1017.99
2017-12-20T08:49:13.246Z,1017.96
2017-12-20T08:50:14.662Z,1017.99
2017-12-20T08:51:16.082Z,1017.98
2017-12-20T08:52:17.554Z,1017.95
2017-12-20T08:53:18.946Z,1017.95
2017-12-20T08:54:20.359Z,1017.93
2017-12-20T08:55:21.768Z,1017.94
2017-12-20T08:56:23.201Z,1017.98
2017-12-20T08:57:24.615Z,1017.95
2017-12-20T08:58:26.030Z,1018.00
2017-12-20T08:59:27.446Z,1018.00
2017-12-20T09:00:28.940Z,1017.94
2017-12-20T09:01:30.351Z,1017.97
2017-12-20T09:02:31.768Z,1017.95
2017-12-20T09:03:33.188Z,1017.97
2017-12-20T09:04:34.606Z,1018.04
2017-12-20T09:05:36.018Z,1017.99
2017-12-20T09:06:37.504Z,1018.03
2017-12-20T09:07:38.924Z,1018.02
2017-12-20T09:08:41.159Z,1018.03
2017-12-20T09:09:42.579Z,1018.04
2017-12-20T09:10:43.991Z,1018.00
2017-12-20T09:11:45.413Z,1018.05
2017-12-20T09:12:46.840Z,1018.06
2017-12-20T09:13:48.256Z,1018.10
2017-12-20T09:14:49.676Z,1018.14
2017-12-20T09:15:51.091Z,1018.14
2017-12-20T09:16:52.518Z,1018.20
2017-12-20T09:17:53.933Z,1018.20
2017-12-20T09:18:55.350Z,1018.19
2017-12-20T09:19:56.780Z,1018.25
2017-12-20T09:20:58.196Z,1018.25
2017-12-20T09:21:59.616Z,1018.21
2017-12-20T09:23:01.030Z,1018.22
2017-12-20T09:24:02.454Z,1018.21
2017-12-20T09:25:03.873Z,1018.20
2017-12-20T09:26:05.292Z,1018.21
2017-12-20T09:27:06.716Z,1018.20
2017-12-20T09:28:08.135Z,1018.21
2017-12-20T09:29:09.555Z,1018.15
2017-12-20T09:30:10.967Z,1018.16
2017-12-20T09:31:12.384Z,1018.15
2017-12-20T09:32:13.804Z,1018.11
2017-12-20T09:33:15.223Z,1018.14
2017-12-20T09:34:16.641Z,1018.09
2017-12-20T09:35:18.061Z,1018.13
2017-12-20T09:36:19.464Z,1018.15
2017-12-20T09:37:20.885Z,1018.15
2017-12-20T09:38:22.306Z,1018.20
2017-12-20T09:39:23.725Z,1018.22
2017-12-20T09:40:25.140Z,1018.23
2017-12-20T09:41:26.558Z,1018.22
2017-12-20T09:42:27.978Z,1018.20
2017-12-20T09:43:29.387Z,1018.19
2017-12-20T09:44:30.806Z,1018.15
2017-12-20T09:45:32.226Z,1018.16
2017-12-20T09:46:33.643Z,1018.21
2017-12-20T09:47:35.057Z,1018.17
2017-12-20T09:48:36.480Z,1018.23
2017-12-20T09:49:37.906Z,1018.26
2017-12-20T09:50:39.310Z,1018.27
2017-12-20T09:51:40.735Z,1018.32
2017-12-20T09:52:42.146Z,1018.37
2017-12-20T09:53:43.560Z,1018.34
2017-12-20T09:54:47.517Z,1018.35
2017-12-20T09:55:48.919Z,1018.37
2017-12-20T09:56:50.339Z,1018.38
2017-12-20T09:57:51.752Z,1018.31
2017-12-20T09:58:53.168Z,1018.24
2017-12-20T09:59:54.575Z,1018.26
2017-12-20T10:00:56.001Z,1018.20
2017-12-20T10:01:57.420Z,1018.25
2017-12-20T10:02:58.875Z,1018.26
2017-12-20T10:04:00.243Z,1018.23
2017-12-20T10:05:01.669Z,1018.26
2017-12-20T10:06:03.084Z,1018.25
2017-12-20T10:07:04.505Z,1018.23
2017-12-20T10:08:05.928Z,1018.32
2017-12-20T10:09:07.344Z,1018.28
2017-12-20T10:10:08.756Z,1018.28
2017-12-20T10:11:10.178Z,1018.28
2017-12-20T10:12:11.591Z,1018.24
2017-12-20T10:13:13.033Z,1018.22
2017-12-20T10:14:14.454Z,1018.29
2017-12-20T10:15:15.874Z,1018.21
2017-12-20T10:16:17.291Z,1018.25
2017-12-20T10:17:18.706Z,1018.28
2017-12-20T10:18:20.118Z,1018.23
2017-12-20T10:19:21.526Z,1018.24
2017-12-20T10:20:22.946Z,1018.23
2017-12-20T10:21:24.375Z,1018.20
2017-12-20T10:22:25.790Z,1018.22
2017-12-20T10:23:27.203Z,1018.15
2017-12-20T10:24:28.622Z,1018.18
2017-12-20T10:25:30.040Z,1018.10
2017-12-20T10:26:31.463Z,1018.10
2017-12-20T10:27:32.887Z,1018.12
2017-12-20T10:28:34.300Z,1018.08
2017-12-20T10:29:35.712Z,1018.07
2017-12-20T10:30:37.138Z,1018.09
2017-12-20T10:31:38.556Z,1018.13
2017-12-20T10:32:39.987Z,1018.12
2017-12-20T10:33:41.402Z,1018.11
2017-12-20T10:34:42.822Z,1018.08
2017-12-20T10:35:44.246Z,1018.04
2017-12-20T10:36:45.659Z,1018.09
2017-12-20T10:37:47.077Z,1018.10
2017-12-20T10:38:48.483Z,1018.08
2017-12-20T10:39:49.897Z,1018.07
2017-12-20T10:40:51.315Z,1018.09
2017-12-20T10:41:52.735Z,1018.08
2017-12-20T10:42:54.152Z,1018.08
2017-12-20T10:43:55.577Z,1018.06
2017-12-20T10:44:56.982Z,1018.10
2017-12-20T10:45:58.405Z,1018.05
2017-12-20T10:46:59.829Z,1018.07
2017-12-20T10:48:01.245Z,1018.09
2017-12-20T10:49:02.658Z,1018.11
2017-12-20T10:50:04.077Z,1018.14
2017-12-20T10:51:05.483Z,1018.13
2017-12-20T10:52:06.901Z,1018.11
2017-12-20T10:53:08.349Z,1018.12
2017-12-20T10:54:09.785Z,1018.13
2017-12-20T10:55:11.191Z,1018.15
2017-12-20T10:56:12.647Z,1018.15
2017-12-20T10:57:14.035Z,1018.16
2017-12-20T10:58:15.455Z,1018.16
2017-12-20T10:59:16.861Z,1018.13
2017-12-20T11:00:18.282Z,1018.11
2017-12-20T11:01:19.689Z,1018.16
2017-12-20T11:02:21.108Z,1018.15
2017-12-20T11:03:22.524Z,1018.18
2017-12-20T11:04:23.946Z,1018.18
2017-12-20T11:05:25.408Z,1018.21
2017-12-20T11:06:26.825Z,1018.22
2017-12-20T11:07:28.239Z,1018.22
2017-12-20T11:08:29.662Z,1018.29
2017-12-20T11:09:31.087Z,1018.25
2017-12-20T11:10:32.504Z,1018.28
2017-12-20T11:11:33.917Z,1018.25
2017-12-20T11:12:35.333Z,1018.30
2017-12-20T11:13:36.757Z,1018.31
2017-12-20T11:14:38.181Z,1018.31
2017-12-20T11:15:39.597Z,1018.31
2017-12-20T11:16:41.018Z,1018.35
2017-12-20T11:17:42.436Z,1018.35
2017-12-20T11:18:43.940Z,1018.28
2017-12-20T11:19:45.354Z,1018.28
2017-12-20T11:20:46.774Z,1018.24
2017-12-20T11:21:48.763Z,1018.22
2017-12-20T11:22:50.180Z,1018.23
2017-12-20T11:23:51.589Z,1018.18
2017-12-20T11:24:53.007Z,1018.19
2017-12-20T11:25:54.425Z,1018.22
2017-12-20T11:26:55.848Z,1018.25
2017-12-20T11:27:57.264Z,1018.24
2017-12-20T11:28:58.692Z,1018.21
2017-12-20T11:30:00.126Z,1018.22
2017-12-20T11:31:01.550Z,1018.26
2017-12-20T11:32:02.977Z,1018.27
2017-12-20T11:33:04.388Z,1018.33
2017-12-20T11:34:05.801Z,1018.28
2017-12-20T11:35:07.227Z,1018.31
2017-12-20T11:36:08.647Z,1018.27
2017-12-20T11:37:10.176Z,1018.29
2017-12-20T11:38:11.584Z,1018.30
2017-12-20T11:39:13.005Z,1018.26
2017-12-20T11:40:14.419Z,1018.23
2017-12-20T11:41:15.839Z,1018.24
2017-12-20T11:42:17.253Z,1018.23
2017-12-20T11:43:18.665Z,1018.17
2017-12-20T11:44:20.090Z,1018.20
2017-12-20T11:45:21.518Z,1018.19
2017-12-20T11:46:22.934Z,1018.20
2017-12-20T11:47:24.346Z,1018.18
2017-12-20T11:48:25.764Z,1018.14
2017-12-20T11:49:27.175Z,1018.16
2017-12-20T11:50:28.594Z,1018.14
2017-12-20T11:51:30.006Z,1018.14
2017-12-20T11:52:31.433Z,1018.10
2017-12-20T11:53:32.860Z,1018.06
2017-12-20T11:54:34.277Z,1018.08
2017-12-20T11:55:35.704Z,1018.05
2017-12-20T11:56:37.128Z,1018.07
2017-12-20T11:57:38.541Z,1018.07
2017-12-20T11:58:39.961Z,1018.02
2017-12-20T11:59:41.375Z,1018.03
2017-12-20T12:00:42.795Z,1018.00
2017-12-20T12:01:44.228Z,1018.02
2017-12-20T12:02:45.655Z,1017.98
2017-12-20T12:03:47.066Z,1017.97
2017-12-20T12:04:48.487Z,1017.96
2017-12-20T12:05:49.909Z,1017.92
2017-12-20T12:06:51.327Z,1017.89
2017-12-20T12:07:52.760Z,1017.84
2017-12-20T12:08:54.178Z,1017.88
2017-12-20T12:09:55.596Z,1017.85
2017-12-20T12:10:57.027Z,1017.86
2017-12-20T12:11:58.455Z,1017.85
2017-12-20T12:12:59.862Z,1017.83
2017-12-20T12:14:01.285Z,1017.91
2017-12-20T12:15:02.702Z,1017.88
2017-12-20T12:16:04.121Z,1017.84
2017-12-20T12:17:05.538Z,1017.82
2017-12-20T12:18:07.026Z,1017.88
2017-12-20T12:19:08.448Z,1017.83
2017-12-20T12:20:09.854Z,1017.90
2017-12-20T12:21:11.286Z,1017.89
2017-12-20T12:22:12.697Z,1017.91
2017-12-20T12:23:14.116Z,1017.91